| time (UTC) | temp C | wind direction | speed KPH | gust KPH | rain 1hr cm | rain 24hr cm | rain mn cm | humidity % | barometer mb |
| 20260506180134 | 26 | 207 | 8.0 | 11.3 | 0.00 | 0.00 | 0.00 | 65 | 1016.9 |
| 20260506175630 | 26 | 219 | 4.8 | 8.0 | 0.00 | 0.00 | 0.00 | 65 | 1017.2 |
| 20260506175126 | 26 | 208 | 3.2 | 4.8 | 0.00 | 0.00 | 0.00 | 64 | 1017.3 |
| 20260506174625 | 26 | 204 | 3.2 | 3.2 | 0.00 | 0.00 | 0.00 | 64 | 1017.1 |
| 20260506174122 | 26 | 202 | 12.9 | 14.5 | 0.00 | 0.00 | 0.00 | 64 | 1017.1 |
| 20260506173619 | 26 | 179 | 4.8 | 4.8 | 0.00 | 0.00 | 0.00 | 65 | 1017.0 |
| 20260506173116 | 26 | 207 | 1.6 | 1.6 | 0.00 | 0.00 | 0.00 | 66 | 1017.1 |
| 20260506172613 | 26 | 171 | 11.3 | 14.5 | 0.00 | 0.00 | 0.00 | 67 | 1017.4 |
| 20260506172109 | 26 | 220 | 9.7 | 11.3 | 0.00 | 0.00 | 0.00 | 65 | 1017.5 |
| 20260506171607 | 26 | 178 | 9.7 | 14.5 | 0.00 | 0.00 | 0.00 | 66 | 1017.6 |
| 20260506171104 | 26 | 177 | 11.3 | 17.7 | 0.00 | 0.00 | 0.00 | 67 | 1017.7 |
| 20260506170602 | 26 | 110 | 9.7 | 11.3 | 0.00 | 0.00 | 0.00 | 68 | 1017.6 |
| 20260506170059 | 26 | 217 | 4.8 | 4.8 | 0.00 | 0.00 | 0.00 | 68 | 1017.8 |
| 20260506165557 | 25 | 243 | 8.0 | 9.7 | 0.00 | 0.00 | 0.00 | 69 | 1017.7 |
| 20260506165053 | 26 | 187 | 11.3 | 17.7 | 0.00 | 0.00 | 0.00 | 69 | 1017.8 |
| 20260506164551 | 26 | 210 | 4.8 | 8.0 | 0.00 | 0.00 | 0.00 | 69 | 1018.0 |
| 20260506164048 | 26 | 203 | 11.3 | 20.9 | 0.00 | 0.00 | 0.00 | 68 | 1018.0 |
| 20260506163543 | 26 | 198 | 6.4 | 8.0 | 0.00 | 0.00 | 0.00 | 69 | 1018.0 |
| 20260506163039 | 26 | 226 | 6.4 | 11.3 | 0.00 | 0.00 | 0.00 | 70 | 1018.0 |
| 20260506162536 | 25 | 195 | 6.4 | 8.0 | 0.00 | 0.00 | 0.00 | 73 | 1017.8 |
| 20260506162033 | 25 | 191 | 4.8 | 4.8 | 0.00 | 0.00 | 0.00 | 71 | 1017.8 |
| 20260506161531 | 26 | 196 | 11.3 | 14.5 | 0.00 | 0.00 | 0.00 | 70 | 1018.0 |
| 20260506161027 | 26 | 262 | 4.8 | 4.8 | 0.00 | 0.00 | 0.00 | 71 | 1017.9 |
| 20260506160525 | 26 | 190 | 11.3 | 11.3 | 0.00 | 0.00 | 0.00 | 70 | 1017.5 |
| 20260506160022 | 25 | 224 | 4.8 | 4.8 | 0.00 | 0.00 | 0.00 | 72 | 1017.5 |
| 20260506155520 | 25 | 246 | 4.8 | 4.8 | 0.00 | 0.00 | 0.00 | 71 | 1017.7 |
| 20260506153652 | 24 | 189 | 1.6 | 4.8 | 0.00 | 0.00 | 0.00 | 73 | 1017.9 |
| 20260506153149 | 25 | 223 | 4.8 | 8.0 | 0.00 | 0.00 | 0.00 | 72 | 1017.6 |
| 20260506152646 | 24 | 169 | 11.3 | 14.5 | 0.00 | 0.00 | 0.00 | 72 | 1017.8 |
| 20260506152143 | 24 | 220 | 6.4 | 9.7 | 0.00 | 0.00 | 0.00 | 74 | 1017.9 |
| 20260506151642 | 24 | 186 | 8.0 | 9.7 | 0.00 | 0.00 | 0.00 | 72 | 1017.7 |
| 20260506151138 | 25 | 215 | 9.7 | 11.3 | 0.00 | 0.00 | 0.00 | 72 | 1017.8 |
| 20260506150635 | 23 | 180 | 3.2 | 3.2 | 0.00 | 0.00 | 0.00 | 74 | 1018.0 |
| 20260506150132 | 24 | 196 | 9.7 | 11.3 | 0.00 | 0.00 | 0.00 | 74 | 1017.9 |
| 20260506145629 | 23 | 166 | 8.0 | 9.7 | 0.00 | 0.00 | 0.00 | 74 | 1017.7 |
| 20260506145126 | 24 | 226 | 3.2 | 4.8 | 0.00 | 0.00 | 0.00 | 74 | 1017.9 |
| 20260506144624 | 23 | 179 | 6.4 | 8.0 | 0.00 | 0.00 | 0.00 | 75 | 1017.9 |
| 20260506144120 | 23 | 175 | 8.0 | 9.7 | 0.00 | 0.00 | 0.00 | 76 | 1018.0 |
| 20260506143618 | 23 | 219 | 3.2 | 4.8 | 0.00 | 0.00 | 0.00 | 77 | 1017.7 |
| 20260506143116 | 23 | 228 | 11.3 | 12.9 | 0.00 | 0.00 | 0.00 | 77 | 1017.9 |
| 20260506142614 | 22 | 187 | 8.0 | 11.3 | 0.00 | 0.00 | 0.00 | 78 | 1018.0 |
| 20260506142112 | 22 | 189 | 6.4 | 8.0 | 0.00 | 0.00 | 0.00 | 79 | 1017.8 |
| 20260506141609 | 22 | 156 | 9.7 | 11.3 | 0.00 | 0.00 | 0.00 | 81 | 1017.8 |
| 20260506141107 | 21 | 188 | 8.0 | 9.7 | 0.00 | 0.00 | 0.00 | 82 | 1017.7 |
| 20260506140604 | 21 | 189 | 3.2 | 3.2 | 0.00 | 0.00 | 0.00 | 83 | 1017.8 |
| 20260506135558 | 21 | 210 | 3.2 | 3.2 | 0.00 | 0.00 | 0.00 | 84 | 1017.9 |
| 20260506135054 | 21 | 216 | 6.4 | 8.0 | 0.00 | 0.00 | 0.00 | 84 | 1017.9 |
| 20260506134551 | 20 | 215 | 6.4 | 8.0 | 0.00 | 0.00 | 0.00 | 85 | 1017.9 |
| 20260506134047 | 20 | 199 | 8.0 | 9.7 | 0.00 | 0.00 | 0.00 | 86 | 1017.9 |
| 20260506133544 | 20 | 169 | 6.4 | 9.7 | 0.00 | 0.00 | 0.00 | 86 | 1018.2 |
| 20260506133041 | 20 | 214 | 4.8 | 4.8 | 0.00 | 0.00 | 0.00 | 87 | 1018.0 |
| 20260506132538 | 20 | 192 | 4.8 | 4.8 | 0.00 | 0.00 | 0.00 | 87 | 1017.9 |
| 20260506132036 | 20 | 192 | 8.0 | 9.7 | 0.00 | 0.00 | 0.00 | 87 | 1017.9 |
| 20260506131532 | 20 | 192 | 4.8 | 8.0 | 0.00 | 0.00 | 0.00 | 88 | 1018.0 |
| 20260506131029 | 20 | 215 | 8.0 | 9.7 | 0.00 | 0.00 | 0.00 | 88 | 1017.8 |
| 20260506130526 | 19 | 193 | 4.8 | 4.8 | 0.00 | 0.00 | 0.00 | 88 | 1017.7 |
| 20260506130023 | 19 | 194 | 4.8 | 8.0 | 0.00 | 0.00 | 0.00 | 89 | 1017.6 |
| 20260506125521 | 19 | 188 | 4.8 | 8.0 | 0.00 | 0.00 | 0.00 | 89 | 1017.2 |
| 20260506125019 | 19 | 187 | 6.4 | 9.7 | 0.00 | 0.00 | 0.00 | 89 | 1017.6 |
| 20260506124517 | 19 | 169 | 11.3 | 14.5 | 0.00 | 0.00 | 0.00 | 89 | 1017.5 |
| 20260506124014 | 18 | 197 | 4.8 | 9.7 | 0.00 | 0.00 | 0.00 | 89 | 1017.4 |
| 20260506123512 | 18 | 176 | 6.4 | 9.7 | 0.00 | 0.00 | 0.00 | 89 | 1017.6 |
| 20260506123010 | 18 | 181 | 4.8 | 9.7 | 0.00 | 0.00 | 0.00 | 89 | 1017.6 |
| 20260506122506 | 18 | 187 | 4.8 | 8.0 | 0.00 | 0.00 | 0.00 | 89 | 1017.6 |
| 20260506122005 | 18 | 187 | 8.0 | 11.3 | 0.00 | 0.00 | 0.00 | 89 | 1017.5 |
| 20260506121501 | 18 | 169 | 4.8 | 8.0 | 0.00 | 0.00 | 0.00 | 89 | 1017.5 |
| 20260506120958 | 18 | 186 | 6.4 | 9.7 | 0.00 | 0.00 | 0.00 | 89 | 1017.3 |
| 20260506120456 | 18 | 202 | 4.8 | 4.8 | 0.00 | 0.00 | 0.00 | 89 | 1017.1 |
| 20260506115953 | 18 | 188 | 3.2 | 3.2 | 0.00 | 0.00 | 0.00 | 89 | 1017.2 |
| 20260506115451 | 18 | 221 | 3.2 | 3.2 | 0.00 | 0.00 | 0.00 | 89 | 1017.1 |
| 20260506114949 | 18 | 186 | 6.4 | 8.0 | 0.00 | 0.00 | 0.00 | 90 | 1017.2 |
| 20260506114446 | 18 | 211 | 3.2 | 3.2 | 0.00 | 0.00 | 0.00 | 90 | 1017.3 |
| 20260506113944 | 17 | 188 | 4.8 | 8.0 | 0.00 | 0.00 | 0.00 | 91 | 1016.7 |
| 20260506113442 | 17 | 202 | 4.8 | 4.8 | 0.00 | 0.00 | 0.00 | 91 | 1016.8 |
| 20260506112938 | 17 | 173 | 4.8 | 4.8 | 0.00 | 0.00 | 0.00 | 92 | 1016.9 |
| 20260506112436 | 17 | 209 | 9.7 | 11.3 | 0.00 | 0.00 | 0.00 | 92 | 1016.9 |
| 20260506111933 | 16 | 198 | 4.8 | 8.0 | 0.00 | 0.00 | 0.00 | 92 | 1016.9 |
| 20260506111431 | 16 | 198 | 6.4 | 8.0 | 0.00 | 0.00 | 0.00 | 93 | 1017.1 |
| 20260506110928 | 16 | 204 | 1.6 | 3.2 | 0.00 | 0.00 | 0.00 | 93 | 1017.0 |
| 20260506110426 | 16 | 228 | 1.6 | 3.2 | 0.00 | 0.00 | 0.00 | 92 | 1016.8 |
| 20260506105922 | 16 | 204 | 1.6 | 1.6 | 0.00 | 0.00 | 0.00 | 92 | 1016.6 |
| 20260506105418 | 16 | 196 | 1.6 | 3.2 | 0.00 | 0.00 | 0.00 | 92 | 1016.9 |
| 20260506104916 | 16 | 210 | 1.6 | 1.6 | 0.00 | 0.00 | 0.00 | 92 | 1017.0 |
| 20260506104414 | 16 | 197 | 4.8 | 8.0 | 0.00 | 0.00 | 0.00 | 92 | 1017.0 |
| 20260506103911 | 16 | 213 | 1.6 | 3.2 | 0.00 | 0.00 | 0.00 | 92 | 1016.7 |
| 20260506103409 | 16 | 203 | 3.2 | 3.2 | 0.00 | 0.00 | 0.00 | 91 | 1016.9 |
| 20260506102905 | 16 | 206 | 4.8 | 4.8 | 0.00 | 0.00 | 0.00 | 91 | 1016.8 |
| 20260506102404 | 16 | 191 | 3.2 | 3.2 | 0.00 | 0.00 | 0.00 | 91 | 1016.8 |
| 20260506101901 | 16 | 200 | 6.4 | 8.0 | 0.00 | 0.00 | 0.00 | 91 | 1016.7 |
| 20260506101356 | 16 | 200 | 3.2 | 4.8 | 0.00 | 0.00 | 0.00 | 91 | 1016.7 |
| 20260506100854 | 16 | 187 | 6.4 | 9.7 | 0.00 | 0.00 | 0.00 | 91 | 1016.7 |
| 20260506100353 | 16 | 200 | 4.8 | 4.8 | 0.00 | 0.00 | 0.00 | 91 | 1017.1 |
| 20260506095850 | 16 | 193 | 3.2 | 3.2 | 0.00 | 0.00 | 0.00 | 91 | 1016.9 |
| 20260506095348 | 16 | 201 | 3.2 | 3.2 | 0.00 | 0.00 | 0.00 | 90 | 1016.8 |
| 20260506094844 | 16 | 212 | 0.0 | 0.0 | 0.00 | 0.00 | 0.00 | 90 | 1016.8 |
| 20260506094343 | 16 | 207 | 0.0 | 1.6 | 0.00 | 0.00 | 0.00 | 90 | 1016.6 |
| 20260506093841 | 16 | 208 | 1.6 | 1.6 | 0.00 | 0.00 | 0.00 | 90 | 1016.9 |
| 20260506093338 | 16 | 192 | 3.2 | 3.2 | 0.00 | 0.00 | 0.00 | 90 | 1016.9 |
| 20260506092835 | 16 | 201 | 1.6 | 1.6 | 0.00 | 0.00 | 0.00 | 90 | 1017.1 |
| 20260506092333 | 16 | 204 | 1.6 | 1.6 | 0.00 | 0.00 | 0.00 | 90 | 1016.9 |
| 20260506091830 | 16 | 187 | 3.2 | 3.2 | 0.00 | 0.00 | 0.00 | 90 | 1017.0 |
| 20260506091328 | 16 | 198 | 3.2 | 3.2 | 0.00 | 0.00 | 0.00 | 90 | 1017.1 |
| 20260506090825 | 16 | 192 | 3.2 | 3.2 | 0.00 | 0.00 | 0.00 | 90 | 1017.0 |
| 20260506090322 | 16 | 182 | 4.8 | 4.8 | 0.00 | 0.00 | 0.00 | 90 | 1017.2 |
| 20260506085819 | 16 | 179 | 6.4 | 8.0 | 0.00 | 0.00 | 0.00 | 90 | 1017.2 |
| 20260506085315 | 16 | 206 | 4.8 | 4.8 | 0.00 | 0.00 | 0.00 | 90 | 1017.5 |
| 20260506084812 | 16 | 208 | 4.8 | 8.0 | 0.00 | 0.00 | 0.00 | 90 | 1017.6 |
| 20260506084308 | 16 | 214 | 3.2 | 4.8 | 0.00 | 0.00 | 0.00 | 90 | 1017.5 |
| 20260506083805 | 16 | 213 | 1.6 | 1.6 | 0.00 | 0.00 | 0.00 | 90 | 1017.3 |
| 20260506083303 | 16 | 199 | 3.2 | 3.2 | 0.00 | 0.00 | 0.00 | 90 | 1017.4 |
| 20260506082800 | 16 | 191 | 3.2 | 4.8 | 0.00 | 0.00 | 0.00 | 90 | 1017.3 |
| 20260506082255 | 16 | 203 | 3.2 | 3.2 | 0.00 | 0.00 | 0.00 | 90 | 1017.2 |
| 20260506081753 | 16 | 200 | 4.8 | 8.0 | 0.00 | 0.00 | 0.00 | 90 | 1017.5 |
| 20260506081251 | 16 | 199 | 4.8 | 4.8 | 0.00 | 0.00 | 0.00 | 89 | 1017.4 |
| 20260506080749 | 16 | 210 | 6.4 | 8.0 | 0.00 | 0.00 | 0.00 | 89 | 1017.3 |
| 20260506080244 | 16 | 216 | 0.0 | 1.6 | 0.00 | 0.00 | 0.00 | 89 | 1017.2 |
| 20260506073229 | 16 | 199 | 4.8 | 4.8 | 0.00 | 0.00 | 0.00 | 88 | 1017.3 |
| 20260506072725 | 16 | 215 | 1.6 | 3.2 | 0.00 | 0.00 | 0.00 | 88 | 1017.3 |
| 20260506072223 | 16 | 207 | 0.0 | 1.6 | 0.00 | 0.00 | 0.00 | 87 | 1017.3 |
| 20260506071721 | 16 | 203 | 3.2 | 3.2 | 0.00 | 0.00 | 0.00 | 87 | 1017.1 |
| 20260506071218 | 16 | 203 | 4.8 | 4.8 | 0.00 | 0.00 | 0.00 | 87 | 1017.0 |
| 20260506070715 | 16 | 191 | 3.2 | 3.2 | 0.00 | 0.00 | 0.00 | 87 | 1017.2 |
| 20260506070212 | 16 | 203 | 1.6 | 3.2 | 0.00 | 0.00 | 0.00 | 87 | 1017.4 |
| 20260506062149 | 17 | 205 | 1.6 | 1.6 | 0.00 | 0.00 | 0.00 | 85 | 1017.3 |
| 20260506061645 | 17 | 209 | 0.0 | 0.0 | 0.00 | 0.00 | 0.00 | 85 | 1017.5 |
| 20260506061142 | 17 | 208 | 1.6 | 1.6 | 0.00 | 0.00 | 0.00 | 84 | 1017.3 |
| 20260506060641 | 17 | 203 | 1.6 | 1.6 | 0.00 | 0.00 | 0.00 | 84 | 1017.3 |
| 20260506060137 | 17 | 202 | 1.6 | 1.6 | 0.00 | 0.00 | 0.00 | 84 | 1017.1 |
| 20260506051109 | 18 | 180 | 3.2 | 4.8 | 0.00 | 0.00 | 0.00 | 82 | 1018.0 |
| 20260506050608 | 18 | 201 | 1.6 | 3.2 | 0.00 | 0.00 | 0.00 | 82 | 1018.1 |
| 20260506050105 | 18 | 210 | 3.2 | 3.2 | 0.00 | 0.00 | 0.00 | 82 | 1018.2 |
| 20260506045058 | 18 | 202 | 3.2 | 3.2 | 0.00 | 0.00 | 0.00 | 82 | 1018.1 |
| 20260506044556 | 18 | 203 | 1.6 | 3.2 | 0.00 | 0.00 | 0.00 | 82 | 1018.0 |
| 20260506044052 | 18 | 212 | 4.8 | 4.8 | 0.00 | 0.00 | 0.00 | 82 | 1017.9 |
| 20260506043549 | 18 | 214 | 6.4 | 8.0 | 0.00 | 0.00 | 0.00 | 82 | 1018.3 |
| 20260506043048 | 18 | 196 | 4.8 | 4.8 | 0.00 | 0.00 | 0.00 | 81 | 1017.9 |
| 20260506042547 | 18 | 193 | 4.8 | 8.0 | 0.00 | 0.00 | 0.00 | 81 | 1018.0 |
| 20260506042044 | 18 | 164 | 6.4 | 8.0 | 0.00 | 0.00 | 0.00 | 81 | 1018.2 |
| 20260506041543 | 18 | 195 | 4.8 | 4.8 | 0.00 | 0.00 | 0.00 | 81 | 1018.3 |
| 20260506041039 | 18 | 197 | 3.2 | 3.2 | 0.00 | 0.00 | 0.00 | 81 | 1018.3 |
| 20260506040537 | 18 | 200 | 3.2 | 3.2 | 0.00 | 0.00 | 0.00 | 81 | 1018.2 |
| 20260506040032 | 18 | 200 | 3.2 | 3.2 | 0.00 | 0.00 | 0.00 | 81 | 1018.0 |
| 20260506035530 | 18 | 154 | 6.4 | 8.0 | 0.00 | 0.00 | 0.00 | 80 | 1018.1 |
| 20260506035026 | 18 | 147 | 4.8 | 4.8 | 0.00 | 0.00 | 0.00 | 80 | 1017.9 |
| 20260506034524 | 18 | 139 | 9.7 | 11.3 | 0.00 | 0.00 | 0.00 | 80 | 1017.7 |
| 20260506034021 | 18 | 195 | 3.2 | 3.2 | 0.00 | 0.00 | 0.00 | 80 | 1018.0 |
| 20260506033518 | 18 | 202 | 3.2 | 4.8 | 0.00 | 0.00 | 0.00 | 80 | 1018.0 |
| 20260506033015 | 18 | 194 | 1.6 | 1.6 | 0.00 | 0.00 | 0.00 | 79 | 1017.9 |
| 20260506032513 | 18 | 182 | 4.8 | 4.8 | 0.00 | 0.00 | 0.00 | 79 | 1017.9 |
| 20260506032009 | 18 | 173 | 3.2 | 4.8 | 0.00 | 0.00 | 0.00 | 79 | 1018.4 |
| 20260506031507 | 18 | 185 | 3.2 | 3.2 | 0.00 | 0.00 | 0.00 | 79 | 1018.2 |
| 20260506031003 | 18 | 134 | 8.0 | 9.7 | 0.00 | 0.00 | 0.00 | 78 | 1018.3 |
| 20260506030501 | 18 | 188 | 3.2 | 3.2 | 0.00 | 0.00 | 0.00 | 78 | 1018.1 |
| 20260506025958 | 18 | 152 | 4.8 | 4.8 | 0.00 | 0.00 | 0.00 | 78 | 1018.5 |
| 20260506025455 | 18 | 189 | 3.2 | 3.2 | 0.00 | 0.00 | 0.00 | 77 | 1018.5 |
| 20260506024951 | 19 | 194 | 6.4 | 8.0 | 0.00 | 0.00 | 0.00 | 77 | 1018.5 |
| 20260506024448 | 19 | 192 | 8.0 | 11.3 | 0.00 | 0.00 | 0.00 | 76 | 1018.8 |
| 20260506023944 | 19 | 204 | 6.4 | 8.0 | 0.00 | 0.00 | 0.00 | 76 | 1018.5 |
| 20260506023441 | 19 | 200 | 1.6 | 3.2 | 0.00 | 0.00 | 0.00 | 76 | 1018.8 |
| 20260506022938 | 20 | 200 | 6.4 | 9.7 | 0.00 | 0.00 | 0.00 | 75 | 1018.7 |
| 20260506022436 | 20 | 189 | 4.8 | 8.0 | 0.00 | 0.00 | 0.00 | 75 | 1018.5 |
| 20260506021933 | 20 | 137 | 8.0 | 11.3 | 0.00 | 0.00 | 0.00 | 75 | 1018.4 |
| 20260506021430 | 20 | 191 | 4.8 | 8.0 | 0.00 | 0.00 | 0.00 | 75 | 1018.3 |
| 20260506020927 | 20 | 187 | 4.8 | 8.0 | 0.00 | 0.00 | 0.00 | 75 | 1018.3 |
| 20260506020425 | 20 | 126 | 6.4 | 9.7 | 0.00 | 0.00 | 0.00 | 74 | 1018.0 |
| 20260506015922 | 20 | 124 | 6.4 | 8.0 | 0.00 | 0.00 | 0.00 | 74 | 1018.1 |
| 20260506015420 | 20 | 173 | 6.4 | 8.0 | 0.00 | 0.00 | 0.00 | 73 | 1017.9 |
| 20260506014916 | 20 | 183 | 6.4 | 8.0 | 0.00 | 0.00 | 0.00 | 73 | 1018.0 |
| 20260506014413 | 20 | 148 | 4.8 | 4.8 | 0.00 | 0.00 | 0.00 | 72 | 1017.8 |
| 20260506013910 | 20 | 124 | 11.3 | 12.9 | 0.00 | 0.00 | 0.00 | 71 | 1017.6 |
| 20260506013408 | 20 | 160 | 8.0 | 11.3 | 0.00 | 0.00 | 0.00 | 71 | 1017.6 |
| 20260506012904 | 21 | 138 | 6.4 | 9.7 | 0.00 | 0.00 | 0.00 | 70 | 1017.4 |
| 20260506012401 | 21 | 161 | 4.8 | 4.8 | 0.00 | 0.00 | 0.00 | 70 | 1017.3 |
| 20260506011858 | 21 | 149 | 8.0 | 9.7 | 0.00 | 0.00 | 0.00 | 69 | 1017.4 |
| 20260506011355 | 21 | 143 | 9.7 | 12.9 | 0.00 | 0.00 | 0.00 | 69 | 1017.4 |
| 20260506010852 | 21 | 137 | 4.8 | 8.0 | 0.00 | 0.00 | 0.00 | 68 | 1017.2 |
| 20260506010350 | 21 | 152 | 8.0 | 9.7 | 0.00 | 0.00 | 0.00 | 68 | 1017.1 |
| 20260506005847 | 21 | 196 | 3.2 | 3.2 | 0.00 | 0.00 | 0.00 | 67 | 1017.3 |
| 20260506005343 | 21 | 164 | 6.4 | 8.0 | 0.00 | 0.00 | 0.00 | 66 | 1017.2 |
| 20260506004839 | 21 | 128 | 12.9 | 16.1 | 0.00 | 0.00 | 0.00 | 65 | 1017.1 |
| 20260506004337 | 22 | 165 | 4.8 | 8.0 | 0.00 | 0.00 | 0.00 | 64 | 1017.1 |
| 20260506003833 | 22 | 131 | 8.0 | 9.7 | 0.00 | 0.00 | 0.00 | 63 | 1016.8 |
| 20260506003329 | 22 | 141 | 6.4 | 8.0 | 0.00 | 0.00 | 0.00 | 63 | 1016.8 |
| 20260506002826 | 22 | 119 | 8.0 | 11.3 | 0.00 | 0.00 | 0.00 | 62 | 1017.1 |
| 20260506002323 | 22 | 144 | 11.3 | 14.5 | 0.00 | 0.00 | 0.00 | 61 | 1016.9 |
| 20260506001818 | 22 | 200 | 1.6 | 3.2 | 0.00 | 0.00 | 0.00 | 61 | 1016.8 |
| 20260506001316 | 23 | 182 | 4.8 | 8.0 | 0.00 | 0.00 | 0.00 | 61 | 1016.9 |
| 20260506000812 | 23 | 159 | 6.4 | 8.0 | 0.00 | 0.00 | 0.00 | 60 | 1016.7 |
| 20260506000310 | 23 | 187 | 8.0 | 12.9 | 0.00 | 0.00 | 0.00 | 60 | 1016.7 |
| 20260505235806 | 23 | 164 | 8.0 | 9.7 | 0.00 | 0.00 | 0.00 | 60 | 1016.6 |
| 20260505235305 | 23 | 178 | 9.7 | 11.3 | 0.00 | 0.00 | 0.00 | 60 | 1016.8 |
| 20260505234801 | 23 | 147 | 8.0 | 9.7 | 0.00 | 0.00 | 0.00 | 60 | 1016.5 |
| 20260505234259 | 24 | 115 | 8.0 | 12.9 | 0.00 | 0.00 | 0.00 | 59 | 1016.7 |
| 20260505233755 | 24 | 146 | 12.9 | 12.9 | 0.00 | 0.00 | 0.00 | 57 | 1016.7 |
| 20260505233253 | 25 | 140 | 8.0 | 9.7 | 0.00 | 0.00 | 0.00 | 56 | 1016.5 |
| 20260505232750 | 25 | 188 | 4.8 | 8.0 | 0.00 | 0.00 | 0.00 | 55 | 1016.5 |
| 20260505232248 | 25 | 187 | 4.8 | 4.8 | 0.00 | 0.00 | 0.00 | 54 | 1016.4 |
| 20260505231744 | 25 | 108 | 11.3 | 14.5 | 0.00 | 0.00 | 0.00 | 53 | 1016.1 |
| 20260505231243 | 25 | 185 | 4.8 | 8.0 | 0.00 | 0.00 | 0.00 | 53 | 1016.4 |
| 20260505230741 | 25 | 127 | 6.4 | 9.7 | 0.00 | 0.00 | 0.00 | 52 | 1016.5 |
| 20260505230237 | 25 | 184 | 8.0 | 11.3 | 0.00 | 0.00 | 0.00 | 52 | 1016.3 |
| 20260505225734 | 25 | 188 | 4.8 | 8.0 | 0.00 | 0.00 | 0.00 | 51 | 1016.2 |
| 20260505225231 | 25 | 138 | 8.0 | 9.7 | 0.00 | 0.00 | 0.00 | 50 | 1016.6 |
| 20260505224726 | 26 | 187 | 8.0 | 11.3 | 0.00 | 0.00 | 0.00 | 50 | 1016.3 |
| 20260505224224 | 26 | 191 | 6.4 | 8.0 | 0.00 | 0.00 | 0.00 | 48 | 1016.5 |
| 20260505223721 | 26 | 183 | 8.0 | 9.7 | 0.00 | 0.00 | 0.00 | 47 | 1016.5 |
| 20260505223217 | 26 | 205 | 6.4 | 8.0 | 0.00 | 0.00 | 0.00 | 46 | 1016.7 |
| 20260505222713 | 26 | 206 | 8.0 | 11.3 | 0.00 | 0.00 | 0.00 | 46 | 1016.5 |
| 20260505222209 | 26 | 189 | 6.4 | 9.7 | 0.00 | 0.00 | 0.00 | 45 | 1016.5 |
| 20260505221707 | 27 | 156 | 12.9 | 16.1 | 0.00 | 0.00 | 0.00 | 44 | 1016.6 |
| 20260505221203 | 27 | 198 | 4.8 | 4.8 | 0.00 | 0.00 | 0.00 | 44 | 1016.5 |
| 20260505220701 | 26 | 213 | 3.2 | 4.8 | 0.00 | 0.00 | 0.00 | 44 | 1016.4 |
| 20260505220159 | 26 | 231 | 6.4 | 9.7 | 0.00 | 0.00 | 0.00 | 43 | 1016.6 |
| 20260505215656 | 27 | 235 | 4.8 | 4.8 | 0.00 | 0.00 | 0.00 | 43 | 1016.5 |
| 20260505215154 | 27 | 186 | 9.7 | 12.9 | 0.00 | 0.00 | 0.00 | 43 | 1016.7 |
| 20260505214651 | 27 | 191 | 8.0 | 11.3 | 0.00 | 0.00 | 0.00 | 43 | 1016.6 |
| 20260505214148 | 27 | 195 | 8.0 | 12.9 | 0.00 | 0.00 | 0.00 | 45 | 1016.8 |
| 20260505213646 | 26 | 162 | 8.0 | 11.3 | 0.00 | 0.00 | 0.00 | 45 | 1016.5 |
| 20260505213143 | 27 | 231 | 12.9 | 22.5 | 0.00 | 0.00 | 0.00 | 45 | 1016.8 |
| 20260505212638 | 26 | 198 | 6.4 | 8.0 | 0.00 | 0.00 | 0.00 | 49 | 1016.6 |
| 20260505212136 | 26 | 187 | 9.7 | 11.3 | 0.00 | 0.00 | 0.00 | 49 | 1016.7 |
| 20260505211633 | 26 | 204 | 11.3 | 14.5 | 0.00 | 0.00 | 0.00 | 47 | 1016.7 |
| 20260505211130 | 26 | 172 | 6.4 | 8.0 | 0.00 | 0.00 | 0.00 | 49 | 1016.8 |
| 20260505210627 | 26 | 174 | 8.0 | 12.9 | 0.00 | 0.00 | 0.00 | 49 | 1016.9 |
| 20260505210123 | 26 | 215 | 1.6 | 1.6 | 0.00 | 0.00 | 0.00 | 48 | 1016.9 |
| 20260505205621 | 27 | 222 | 17.7 | 22.5 | 0.00 | 0.00 | 0.00 | 46 | 1016.8 |
| 20260505205119 | 27 | 178 | 16.1 | 16.1 | 0.00 | 0.00 | 0.00 | 46 | 1017.0 |
| 20260505204616 | 26 | 179 | 11.3 | 12.9 | 0.00 | 0.00 | 0.00 | 48 | 1016.8 |
| 20260505204113 | 27 | 203 | 12.9 | 16.1 | 0.00 | 0.00 | 0.00 | 47 | 1017.2 |
| 20260505203610 | 27 | 173 | 8.0 | 9.7 | 0.00 | 0.00 | 0.00 | 50 | 1016.8 |
| 20260505203107 | 27 | 146 | 11.3 | 16.1 | 0.00 | 0.00 | 0.00 | 49 | 1017.1 |
| 20260505202603 | 27 | 149 | 11.3 | 14.5 | 0.00 | 0.00 | 0.00 | 49 | 1016.8 |
| 20260505202059 | 27 | 131 | 14.5 | 16.1 | 0.00 | 0.00 | 0.00 | 49 | 1016.9 |
| 20260505201555 | 27 | 129 | 11.3 | 12.9 | 0.00 | 0.00 | 0.00 | 50 | 1017.4 |
| 20260505201054 | 27 | 183 | 11.3 | 16.1 | 0.00 | 0.00 | 0.00 | 49 | 1017.3 |
| 20260505200551 | 27 | 185 | 9.7 | 12.9 | 0.00 | 0.00 | 0.00 | 46 | 1017.1 |
| 20260505200048 | 27 | 157 | 11.3 | 12.9 | 0.00 | 0.00 | 0.00 | 47 | 1017.3 |
| 20260505195544 | 27 | 205 | 4.8 | 8.0 | 0.00 | 0.00 | 0.00 | 46 | 1017.3 |
| 20260505195042 | 27 | 203 | 9.7 | 12.9 | 0.00 | 0.00 | 0.00 | 47 | 1017.5 |
| 20260505194539 | 27 | 152 | 14.5 | 16.1 | 0.00 | 0.00 | 0.00 | 47 | 1017.6 |
| 20260505194034 | 27 | 196 | 6.4 | 9.7 | 0.00 | 0.00 | 0.00 | 48 | 1017.6 |
| 20260505193531 | 27 | 179 | 8.0 | 9.7 | 0.00 | 0.00 | 0.00 | 46 | 1017.7 |
| 20260505193028 | 27 | 142 | 6.4 | 9.7 | 0.00 | 0.00 | 0.00 | 48 | 1017.5 |
| 20260505192527 | 27 | 213 | 3.2 | 3.2 | 0.00 | 0.00 | 0.00 | 50 | 1017.9 |
| 20260505192024 | 27 | 195 | 4.8 | 4.8 | 0.00 | 0.00 | 0.00 | 50 | 1017.9 |
| 20260505191522 | 27 | 106 | 8.0 | 9.7 | 0.00 | 0.00 | 0.00 | 49 | 1018.0 |
| 20260505191020 | 27 | 182 | 6.4 | 9.7 | 0.00 | 0.00 | 0.00 | 47 | 1018.0 |
| 20260505190514 | 27 | 214 | 12.9 | 14.5 | 0.00 | 0.00 | 0.00 | 46 | 1018.0 |
| 20260505190011 | 26 | 138 | 8.0 | 9.7 | 0.00 | 0.00 | 0.00 | 51 | 1017.9 |
| 20260505185508 | 26 | 231 | 9.7 | 17.7 | 0.00 | 0.00 | 0.00 | 49 | 1018.1 |
| 20260505185004 | 27 | 194 | 3.2 | 3.2 | 0.00 | 0.00 | 0.00 | 51 | 1018.2 |
| 20260505184501 | 26 | 122 | 11.3 | 17.7 | 0.00 | 0.00 | 0.00 | 51 | 1018.1 |
| 20260505183957 | 26 | 213 | 12.9 | 16.1 | 0.00 | 0.00 | 0.00 | 50 | 1018.4 |
| 20260505183455 | 26 | 151 | 6.4 | 8.0 | 0.00 | 0.00 | 0.00 | 53 | 1018.1 |
| 20260505182951 | 26 | 156 | 6.4 | 8.0 | 0.00 | 0.00 | 0.00 | 51 | 1018.3 |
| 20260505182448 | 26 | 175 | 11.3 | 12.9 | 0.00 | 0.00 | 0.00 | 52 | 1018.5 |
| 20260505181944 | 26 | 111 | 8.0 | 9.7 | 0.00 | 0.00 | 0.00 | 52 | 1018.5 |
| 20260505181442 | 26 | 114 | 17.7 | 22.5 | 0.00 | 0.00 | 0.00 | 50 | 1018.4 |
| 20260505180938 | 26 | 182 | 6.4 | 9.7 | 0.00 | 0.00 | 0.00 | 50 | 1018.4 |